Time;durP1;ratioP1;P1;durP2;ratioP2;P2;SDS_P1;SDS_P2;PMS_P1;PMS_P2;Temp;Humidity;BMP_temperature;BMP_pressure;BME280_temperature;BME280_humidity;BME280_pressure;Samples;Min_cycle;Max_cycle;Signal;HPM_P1;HPM_P2
2021/05/18 00:01:14;;;;;;;19.05;7.80;;;;;;;;;;5033887;28;20022;-68
2021/05/18 00:03:39;;;;;;;34.33;10.53;;;;;;;;;;5015522;28;20025;-68
2021/05/18 00:06:05;;;;;;;18.17;8.27;;;;;;;;;;5033761;28;20268;-68
2021/05/18 00:08:32;;;;;;;19.83;8.32;;;;;;;;;;5033979;28;20260;-69
2021/05/18 00:13:44;;;;;;;20.85;7.78;;;;;;;;;;5032882;28;20417;-69
2021/05/18 00:16:10;;;;;;;27.35;9.20;;;;;;;;;;5033505;28;20026;-69
2021/05/18 00:18:36;;;;;;;16.63;7.93;;;;;;;;;;5033461;28;20048;-69
2021/05/18 00:21:01;;;;;;;23.17;7.25;;;;;;;;;;5033349;28;20104;-69
2021/05/18 00:23:27;;;;;;;21.83;7.72;;;;;;;;;;5033506;28;20032;-69
2021/05/18 00:25:52;;;;;;;22.23;8.07;;;;;;;;;;5032787;28;20120;-68
2021/05/18 00:28:17;;;;;;;17.80;8.15;;;;;;;;;;5033019;28;20090;-69
2021/05/18 00:30:42;;;;;;;24.10;8.98;;;;;;;;;;5033201;28;20021;-68
2021/05/18 00:33:11;;;;;;;20.02;8.38;;;;;;;;;;5032627;28;20021;-69
2021/05/18 00:35:37;;;;;;;18.40;8.98;;;;;;;;;;5033227;28;20474;-69
2021/05/18 00:38:04;;;;;;;21.77;8.82;;;;;;;;;;5033072;28;20037;-69
2021/05/18 00:40:29;;;;;;;20.05;9.30;;;;;;;;;;5014039;28;20021;-69
2021/05/18 00:42:55;;;;;;;24.77;9.37;;;;;;;;;;5029919;28;20047;-69
2021/05/18 00:45:29;;;;;;;36.33;10.95;;;;;;;;;;5033196;28;20256;-69
2021/05/18 00:47:54;;;;;;;27.55;10.02;;;;;;;;;;5032614;28;20393;-69
2021/05/18 00:50:19;;;;;;;20.73;9.18;;;;;;;;;;5033249;28;20023;-69
2021/05/18 00:52:45;;;;;;;27.00;8.90;;;;;;;;;;5032468;28;20029;-68
2021/05/18 00:55:20;;;;;;;23.88;9.65;;;;;;;;;;5032031;28;20021;-68
2021/05/18 01:00:29;;;;;;;15.95;8.40;;;;;;;;;;5032858;28;20083;-69
2021/05/18 01:02:54;;;;;;;20.15;8.68;;;;;;;;;;5032751;28;20021;-69
2021/05/18 01:05:21;;;;;;;23.38;8.38;;;;;;;;;;5032468;28;20028;-69
2021/05/18 01:07:49;;;;;;;24.10;9.80;;;;;;;;;;5031922;28;20029;-69
2021/05/18 01:10:16;;;;;;;35.08;9.50;;;;;;;;;;5032386;28;20028;-68
2021/05/18 01:12:41;;;;;;;22.25;9.70;;;;;;;;;;5030320;28;20025;-69
2021/05/18 01:15:07;;;;;;;23.23;8.68;;;;;;;;;;5032788;28;20029;-69
2021/05/18 01:17:32;;;;;;;27.20;10.43;;;;;;;;;;5031670;28;20540;-69
2021/05/18 01:20:06;;;;;;;27.83;10.27;;;;;;;;;;5032876;28;20057;-70
2021/05/18 01:22:31;;;;;;;25.85;10.73;;;;;;;;;;5031970;28;20284;-70
2021/05/18 01:24:57;;;;;;;28.60;11.50;;;;;;;;;;5032333;28;20075;-69
2021/05/18 01:27:22;;;;;;;27.23;10.07;;;;;;;;;;5032027;28;20276;-70
2021/05/18 01:29:47;;;;;;;29.97;12.07;;;;;;;;;;5032573;28;20354;-70
2021/05/18 01:32:12;;;;;;;23.73;10.60;;;;;;;;;;5032478;28;20279;-70
2021/05/18 01:34:37;;;;;;;24.70;11.35;;;;;;;;;;5029555;28;20324;-68
2021/05/18 01:37:02;;;;;;;32.97;13.10;;;;;;;;;;5023236;28;20186;-70
2021/05/18 01:44:56;;;;;;;27.35;11.65;;;;;;;;;;5031862;28;20082;-69
2021/05/18 01:47:21;;;;;;;25.08;12.02;;;;;;;;;;5031497;28;20021;-70
2021/05/18 01:49:46;;;;;;;27.17;11.77;;;;;;;;;;5032089;28;20363;-70
2021/05/18 01:52:11;;;;;;;31.33;10.70;;;;;;;;;;5033490;28;20389;-69
2021/05/18 01:54:36;;;;;;;31.13;11.65;;;;;;;;;;5032097;28;20271;-70
2021/05/18 01:57:17;;;;;;;28.77;11.48;;;;;;;;;;5031461;28;20025;-70
2021/05/18 01:59:42;;;;;;;;;;;;;;;;;;5031244;28;20152;-68
2021/05/18 02:02:07;;;;;;;25.48;10.40;;;;;;;;;;5031566;28;20004;-69
2021/05/18 02:04:35;;;;;;;22.83;10.95;;;;;;;;;;5031186;28;20023;-68
2021/05/18 02:07:02;;;;;;;35.08;10.95;;;;;;;;;;5031064;28;20036;-68
2021/05/18 02:09:28;;;;;;;29.20;11.30;;;;;;;;;;5031177;28;20466;-69
2021/05/18 02:11:53;;;;;;;27.40;11.38;;;;;;;;;;5013645;28;20029;-69
2021/05/18 02:14:29;;;;;;;35.08;11.25;;;;;;;;;;5031511;28;20061;-69
2021/05/18 02:17:01;;;;;;;29.65;10.90;;;;;;;;;;5031204;28;20395;-69
2021/05/18 02:19:37;;;;;;;28.70;11.60;;;;;;;;;;5031294;28;20394;-70
2021/05/18 02:24:47;;;;;;;25.20;12.68;;;;;;;;;;5031336;28;20075;-70
2021/05/18 02:27:12;;;;;;;28.42;12.30;;;;;;;;;;5030502;28;20478;-70
2021/05/18 02:29:38;;;;;;;33.35;13.07;;;;;;;;;;5013002;28;20060;-70
2021/05/18 02:32:03;;;;;;;22.80;11.38;;;;;;;;;;5030687;28;20032;-70
2021/05/18 02:34:28;;;;;;;24.67;11.93;;;;;;;;;;5012998;28;20029;-69
2021/05/18 02:36:53;;;;;;;28.00;13.80;;;;;;;;;;5030850;28;20549;-70
2021/05/18 02:39:19;;;;;;;31.42;12.73;;;;;;;;;;5030536;28;20280;-70
2021/05/18 02:41:44;;;;;;;29.03;13.87;;;;;;;;;;5030491;28;20030;-69
2021/05/18 02:44:16;;;;;;;27.80;14.68;;;;;;;;;;5030613;28;20771;-69
2021/05/18 02:49:25;;;;;;;30.90;14.23;;;;;;;;;;5030711;28;20048;-70
2021/05/18 02:51:51;;;;;;;22.45;12.73;;;;;;;;;;5030320;28;20549;-70
2021/05/18 02:54:22;;;;;;;25.13;13.20;;;;;;;;;;5030688;28;20064;-69
2021/05/18 02:56:59;;;;;;;26.02;14.20;;;;;;;;;;5030476;28;20140;-71
2021/05/18 02:59:25;;;;;;;26.02;13.43;;;;;;;;;;5030610;28;20025;-70
2021/05/18 03:01:55;;;;;;;29.33;13.95;;;;;;;;;;5030516;28;20025;-70
2021/05/18 03:04:21;;;;;;;35.75;14.57;;;;;;;;;;5030096;28;20363;-70
2021/05/18 03:06:48;;;;;;;41.80;17.75;;;;;;;;;;5030332;28;20545;-70
2021/05/18 03:09:14;;;;;;;41.35;17.75;;;;;;;;;;5030233;28;20017;-70
2021/05/18 03:11:40;;;;;;;39.65;18.17;;;;;;;;;;5030202;28;20473;-70
2021/05/18 03:14:06;;;;;;;36.47;18.08;;;;;;;;;;5029888;28;20071;-70
2021/05/18 03:16:32;;;;;;;40.60;17.30;;;;;;;;;;5028978;28;20211;-70
2021/05/18 03:18:57;;;;;;;44.78;17.27;;;;;;;;;;5030641;28;20107;-70
2021/05/18 03:21:23;;;;;;;30.83;17.73;;;;;;;;;;5012059;28;20017;-71
2021/05/18 03:23:48;;;;;;;41.58;18.38;;;;;;;;;;5012634;28;20091;-71
2021/05/18 03:26:13;;;;;;;36.97;16.95;;;;;;;;;;5030024;28;20014;-70
2021/05/18 03:28:38;;;;;;;26.45;14.52;;;;;;;;;;5030031;28;20025;-71
2021/05/18 03:31:15;;;;;;;28.83;14.35;;;;;;;;;;5030102;28;20026;-68
2021/05/18 03:36:24;;;;;;;36.28;13.25;;;;;;;;;;5030365;28;20512;-71
2021/05/18 03:38:54;;;;;;;22.53;10.97;;;;;;;;;;5030509;28;20060;-70
2021/05/18 03:41:24;;;;;;;30.05;14.07;;;;;;;;;;5029828;28;20630;-70
2021/05/18 04:05:19;;;;;;;21.85;7.93;;;;;;;;;;5029462;28;20017;-70
2021/05/18 04:16:50;;;;;;;17.35;5.80;;;;;;;;;;5029272;28;20520;-71
2021/05/18 04:21:20;;;;;;;17.57;6.47;;;;;;;;;;5029394;28;20045;-71
2021/05/18 04:23:53;;;;;;;19.77;5.93;;;;;;;;;;5028970;28;20256;-70
2021/05/18 04:26:34;;;;;;;17.08;5.60;;;;;;;;;;5011453;28;20025;-69
2021/05/18 04:40:35;;;;;;;23.05;5.82;;;;;;;;;;5033131;28;20087;-67
2021/05/18 04:43:21;;;;;;;15.63;5.88;;;;;;;;;;5020139;28;20517;-69
2021/05/18 05:01:52;;;;;;;25.75;7.75;;;;;;;;;;5032339;28;20437;-70
2021/05/18 05:04:19;;;;;;;19.27;7.32;;;;;;;;;;5031103;28;20030;-69
2021/05/18 05:06:52;;;;;;;24.33;7.10;;;;;;;;;;5022198;28;20034;-69
2021/05/18 05:09:32;;;;;;;16.13;6.03;;;;;;;;;;5025580;28;20024;-69
2021/05/18 05:14:44;;;;;;;31.13;8.00;;;;;;;;;;5052052;23;20126;-86
2021/05/18 05:17:17;;;;;;;21.45;5.65;;;;;;;;;;5002519;28;20064;-84
2021/05/18 05:19:52;;;;;;;18.33;6.43;;;;;;;;;;5007096;28;20092;-86
2021/05/18 05:22:38;;;;;;;17.38;6.43;;;;;;;;;;5027362;28;20025;-85
2021/05/18 05:25:22;;;;;;;20.33;6.47;;;;;;;;;;5029191;28;20021;-86
2021/05/18 05:27:51;;;;;;;22.08;6.72;;;;;;;;;;4996584;28;20076;-85
2021/05/18 05:30:29;;;;;;;16.13;6.40;;;;;;;;;;5023556;28;20017;-86
2021/05/18 05:33:09;;;;;;;18.90;6.25;;;;;;;;;;5002546;28;20115;-86
2021/05/18 05:35:37;;;;;;;19.30;5.75;;;;;;;;;;5009766;28;20112;-86
2021/05/18 05:38:35;;;;;;;24.25;6.47;;;;;;;;;;5014680;28;20076;-85
2021/05/18 05:41:22;;;;;;;17.77;6.63;;;;;;;;;;5006522;28;20068;-86
2021/05/18 05:43:47;;;;;;;28.00;5.53;;;;;;;;;;4976245;28;20048;-86
2021/05/18 05:46:12;;;;;;;23.60;5.68;;;;;;;;;;5008506;28;20013;-84
2021/05/18 05:48:38;;;;;;;16.92;5.25;;;;;;;;;;5004220;28;20030;-84
2021/05/18 05:51:04;;;;;;;21.83;5.50;;;;;;;;;;5018022;23;20494;-63
2021/05/18 05:53:29;;;;;;;14.10;5.65;;;;;;;;;;5008336;28;20013;-63
2021/05/18 05:55:54;;;;;;;27.67;6.20;;;;;;;;;;5010642;28;20018;-63
2021/05/18 05:58:19;;;;;;;22.25;5.43;;;;;;;;;;5009581;28;20061;-63
2021/05/18 06:00:45;;;;;;;14.85;5.75;;;;;;;;;;5010729;28;20020;-62
2021/05/18 06:03:10;;;;;;;17.77;5.38;;;;;;;;;;5035307;23;20607;-68
2021/05/18 06:05:35;;;;;;;16.58;5.38;;;;;;;;;;5029975;28;20116;-67
2021/05/18 06:08:00;;;;;;;22.17;5.70;;;;;;;;;;5029919;28;20022;-68
2021/05/18 06:10:29;;;;;;;20.23;5.07;;;;;;;;;;5031010;28;20362;-68
2021/05/18 06:36:58;;;;;;;42.15;14.48;;;;;;;;;;5011451;28;20398;-69
2021/05/18 06:47:32;;;;;;;22.35;7.22;;;;;;;;;;5010015;28;20121;-71
2021/05/18 06:50:28;;;;;;;34.83;8.90;;;;;;;;;;4991009;28;20084;-68
2021/05/18 06:52:53;;;;;;;62.05;14.40;;;;;;;;;;5010243;28;20022;-69
2021/05/18 06:55:21;;;;;;;21.63;6.80;;;;;;;;;;5010804;28;20030;-69
2021/05/18 06:57:54;;;;;;;20.85;9.00;;;;;;;;;;5010663;28;20018;-69
2021/05/18 07:00:20;;;;;;;32.83;12.68;;;;;;;;;;5010048;28;20026;-69
2021/05/18 07:02:47;;;;;;;28.85;10.52;;;;;;;;;;5011048;28;20482;-70
2021/05/18 07:05:28;;;;;;;16.80;8.20;;;;;;;;;;5010337;28;20064;-70
2021/05/18 07:10:42;;;;;;;23.00;6.80;;;;;;;;;;4990965;28;20552;-70
2021/05/18 07:13:08;;;;;;;28.88;9.80;;;;;;;;;;5009439;28;20025;-70
2021/05/18 07:15:33;;;;;;;19.85;8.82;;;;;;;;;;5009959;28;20020;-69
2021/05/18 07:17:58;;;;;;;32.30;11.00;;;;;;;;;;5010293;28;20025;-68
2021/05/18 07:20:24;;;;;;;18.38;7.82;;;;;;;;;;5008952;28;20068;-68
2021/05/18 07:22:54;;;;;;;29.45;11.43;;;;;;;;;;5009261;28;20095;-69
2021/05/18 07:25:19;;;;;;;32.35;11.68;;;;;;;;;;5010510;28;20022;-69
2021/05/18 07:27:45;;;;;;;33.85;12.25;;;;;;;;;;5009963;28;20026;-69
2021/05/18 07:30:11;;;;;;;34.80;12.10;;;;;;;;;;5010104;28;20478;-69
2021/05/18 07:32:36;;;;;;;35.47;13.65;;;;;;;;;;5006431;28;20281;-69
2021/05/18 07:35:02;;;;;;;33.13;12.70;;;;;;;;;;5009490;28;20034;-70
2021/05/18 07:37:28;;;;;;;29.45;12.48;;;;;;;;;;5010409;28;20022;-69
2021/05/18 07:39:53;;;;;;;42.88;17.88;;;;;;;;;;5010417;28;20037;-69
2021/05/18 07:42:18;;;;;;;22.75;11.02;;;;;;;;;;5009384;28;20654;-69
2021/05/18 07:44:44;;;;;;;32.00;12.97;;;;;;;;;;5010031;28;20026;-70
2021/05/18 07:47:12;;;;;;;31.13;12.73;;;;;;;;;;5009551;28;20349;-70
2021/05/18 07:49:41;;;;;;;24.38;11.98;;;;;;;;;;5010236;28;20084;-70
2021/05/18 08:00:39;;;;;;;32.78;12.60;;;;;;;;;;5010474;28;20086;-69
2021/05/18 08:05:46;;;;;;;28.65;13.07;;;;;;;;;;5013651;28;20030;-69
2021/05/18 08:08:11;;;;;;;35.17;14.77;;;;;;;;;;5013928;28;20022;-69
2021/05/18 08:10:59;;;;;;;21.85;10.15;;;;;;;;;;5014216;28;20462;-69
2021/05/18 08:13:23;;;;;;;28.40;12.93;;;;;;;;;;5013345;28;20041;-69
2021/05/18 08:21:08;;;;;;;24.55;12.15;;;;;;;;;;5013605;28;20115;-69
2021/05/18 10:26:42;;;;;;;21.60;11.07;;;;;;;;;;5010888;28;20474;-70
2021/05/18 10:36:11;;;;;;;14.73;7.53;;;;;;;;;;5011052;28;20022;-71
2021/05/18 10:38:43;;;;;;;15.95;7.28;;;;;;;;;;5007828;28;20489;-71
2021/05/18 10:41:12;;;;;;;13.98;7.47;;;;;;;;;;4991943;28;20057;-70
2021/05/18 10:43:37;;;;;;;15.73;7.30;;;;;;;;;;5010927;28;20060;-69
2021/05/18 10:46:05;;;;;;;15.77;7.22;;;;;;;;;;5006031;28;20026;-70
2021/05/18 10:48:36;;;;;;;17.92;7.63;;;;;;;;;;4980925;28;20031;-70
2021/05/18 10:51:22;;;;;;;16.33;7.80;;;;;;;;;;4991864;28;20097;-69
2021/05/18 10:54:05;;;;;;;12.35;6.78;;;;;;;;;;5010341;28;20104;-69
2021/05/18 10:56:50;;;;;;;14.18;6.70;;;;;;;;;;5009941;28;20312;-70
2021/05/18 10:59:16;;;;;;;10.30;5.88;;;;;;;;;;5010085;28;20096;-70
2021/05/18 11:01:41;;;;;;;17.00;6.63;;;;;;;;;;5010681;28;20093;-70
2021/05/18 11:04:07;;;;;;;14.30;5.53;;;;;;;;;;5010351;28;20141;-71
2021/05/18 11:06:32;;;;;;;10.00;5.40;;;;;;;;;;5010328;28;20277;-71
2021/05/18 11:08:58;;;;;;;13.07;6.15;;;;;;;;;;5010634;28;20512;-71
2021/05/18 11:11:26;;;;;;;7.38;4.10;;;;;;;;;;5010486;28;20526;-70
2021/05/18 11:13:55;;;;;;;10.55;5.18;;;;;;;;;;5010043;28;20014;-70
2021/05/18 11:16:20;;;;;;;9.32;5.18;;;;;;;;;;5009605;28;20427;-70
2021/05/18 11:18:47;;;;;;;10.20;6.43;;;;;;;;;;5011037;28;20029;-70
2021/05/18 11:21:12;;;;;;;14.57;8.40;;;;;;;;;;5010175;28;20269;-69
2021/05/18 11:23:37;;;;;;;29.75;11.02;;;;;;;;;;5010398;28;20036;-71
2021/05/18 11:26:04;;;;;;;16.90;7.20;;;;;;;;;;5009268;28;20525;-71
2021/05/18 11:28:29;;;;;;;12.98;7.00;;;;;;;;;;5011100;28;20293;-71
2021/05/18 11:30:56;;;;;;;19.60;9.48;;;;;;;;;;5009976;28;20056;-71
2021/05/18 11:33:28;;;;;;;19.75;9.10;;;;;;;;;;5010668;28;20037;-71
2021/05/18 11:36:10;;;;;;;10.48;6.80;;;;;;;;;;5009740;28;20105;-71
2021/05/18 11:38:39;;;;;;;18.58;5.00;;;;;;;;;;5008400;28;20347;-71
2021/05/18 11:41:04;;;;;;;7.57;3.83;;;;;;;;;;5010620;28;20024;-71
2021/05/18 11:43:37;;;;;;;5.35;3.55;;;;;;;;;;5010619;28;20768;-71
2021/05/18 11:46:05;;;;;;;8.02;5.47;;;;;;;;;;5009288;28;20018;-71
2021/05/18 11:48:31;;;;;;;6.53;3.50;;;;;;;;;;5010504;28;20088;-71
2021/05/18 11:51:01;;;;;;;10.68;4.55;;;;;;;;;;5007863;28;20486;-70
2021/05/18 11:53:27;;;;;;;12.57;5.47;;;;;;;;;;5006275;28;20022;-71
2021/05/18 11:55:52;;;;;;;9.30;4.63;;;;;;;;;;5010254;28;20029;-71
2021/05/18 11:58:17;;;;;;;9.40;4.50;;;;;;;;;;5009751;28;20022;-71
2021/05/18 12:00:42;;;;;;;8.30;4.57;;;;;;;;;;5010405;28;20761;-71
2021/05/18 12:03:09;;;;;;;7.77;4.97;;;;;;;;;;5009526;28;20283;-71
2021/05/18 12:05:34;;;;;;;13.50;7.10;;;;;;;;;;5050280;23;20308;-63
2021/05/18 12:08:00;;;;;;;12.30;6.30;;;;;;;;;;5029248;28;20033;-63
2021/05/18 12:10:32;;;;;;;9.95;5.50;;;;;;;;;;5029694;28;20033;-64
2021/05/18 12:12:58;;;;;;;10.05;5.93;;;;;;;;;;5029939;28;20018;-65
2021/05/18 12:15:23;;;;;;;7.65;5.05;;;;;;;;;;5029500;28;20466;-66
2021/05/18 12:17:52;;;;;;;12.73;7.10;;;;;;;;;;5010800;28;20032;-66
2021/05/18 12:20:17;;;;;;;13.82;6.13;;;;;;;;;;5021632;28;20053;-63
2021/05/18 12:22:46;;;;;;;9.88;5.57;;;;;;;;;;5022312;28;20076;-64
2021/05/18 12:25:26;;;;;;;10.25;4.90;;;;;;;;;;5029738;28;20136;-64
2021/05/18 12:27:51;;;;;;;9.50;6.00;;;;;;;;;;5029967;28;20105;-64
2021/05/18 12:30:16;;;;;;;11.87;4.93;;;;;;;;;;5029395;28;20450;-65
2021/05/18 12:32:46;;;;;;;7.97;4.97;;;;;;;;;;5011993;28;20284;-64
2021/05/18 12:35:19;;;;;;;8.43;5.07;;;;;;;;;;5012457;28;20509;-64
2021/05/18 12:37:45;;;;;;;10.27;4.45;;;;;;;;;;5028898;28;20095;-64
2021/05/18 12:40:14;;;;;;;12.48;4.68;;;;;;;;;;5029118;28;20537;-65
2021/05/18 12:42:40;;;;;;;6.95;4.70;;;;;;;;;;5028847;28;20029;-63
2021/05/18 12:45:07;;;;;;;10.15;5.85;;;;;;;;;;5028872;28;20029;-63
2021/05/18 12:47:35;;;;;;;9.45;4.57;;;;;;;;;;5028604;28;20017;-64
2021/05/18 12:50:01;;;;;;;13.18;5.00;;;;;;;;;;5013295;28;20029;-64
2021/05/18 12:52:38;;;;;;;9.77;5.57;;;;;;;;;;5032277;28;20409;-64
2021/05/18 12:55:12;;;;;;;10.40;5.35;;;;;;;;;;5031376;28;20030;-64
2021/05/18 12:57:47;;;;;;;12.07;5.72;;;;;;;;;;5026632;28;20030;-64
2021/05/18 13:00:12;;;;;;;5.65;3.78;;;;;;;;;;5022339;28;20030;-64
2021/05/18 13:02:38;;;;;;;12.25;4.05;;;;;;;;;;5032064;28;20045;-63
2021/05/18 13:05:04;;;;;;;5.93;3.97;;;;;;;;;;5031755;28;20425;-67
2021/05/18 13:07:29;;;;;;;7.70;3.72;;;;;;;;;;5031864;28;20304;-65
2021/05/18 13:10:11;;;;;;;7.68;4.70;;;;;;;;;;5032429;28;20025;-64
2021/05/18 13:12:37;;;;;;;11.43;4.82;;;;;;;;;;5031890;28;20033;-65
2021/05/18 13:15:06;;;;;;;8.90;4.70;;;;;;;;;;5031387;28;20535;-65
2021/05/18 13:17:32;;;;;;;9.27;5.23;;;;;;;;;;5032430;28;20105;-64
2021/05/18 13:19:57;;;;;;;7.88;5.38;;;;;;;;;;5032788;28;20715;-64
2021/05/18 13:22:23;;;;;;;8.00;6.10;;;;;;;;;;5032070;28;20072;-64
2021/05/18 13:27:32;;;;;;;15.82;8.20;;;;;;;;;;5031624;28;20080;-64
2021/05/18 13:29:57;;;;;;;11.30;7.37;;;;;;;;;;5032223;28;20030;-65
2021/05/18 13:32:22;;;;;;;13.40;8.45;;;;;;;;;;5032209;28;20284;-65
2021/05/18 13:34:47;;;;;;;15.87;8.30;;;;;;;;;;5030722;28;20061;-65
2021/05/18 13:37:13;;;;;;;11.50;8.00;;;;;;;;;;5025907;28;20300;-65
2021/05/18 13:39:38;;;;;;;11.77;7.50;;;;;;;;;;5031922;28;20268;-65
2021/05/18 13:42:03;;;;;;;13.10;7.82;;;;;;;;;;5029436;28;20291;-65
2021/05/18 13:44:28;;;;;;;13.75;8.35;;;;;;;;;;5026307;28;20467;-66
2021/05/18 13:46:53;;;;;;;13.05;8.60;;;;;;;;;;5031338;28;20096;-66
2021/05/18 13:49:19;;;;;;;16.05;9.35;;;;;;;;;;5031558;28;20116;-65
2021/05/18 13:51:44;;;;;;;17.30;9.73;;;;;;;;;;5031040;28;20505;-66
2021/05/18 13:54:09;;;;;;;15.20;10.18;;;;;;;;;;5031697;28;20270;-66
2021/05/18 13:56:35;;;;;;;18.08;9.98;;;;;;;;;;5031021;28;20033;-67
2021/05/18 13:59:00;;;;;;;13.97;10.27;;;;;;;;;;5031484;28;20051;-66
2021/05/18 14:01:25;;;;;;;21.93;10.67;;;;;;;;;;5030834;28;20741;-65
2021/05/18 14:03:50;;;;;;;18.52;11.00;;;;;;;;;;5031150;28;20291;-64
2021/05/18 14:06:16;;;;;;;19.98;12.18;;;;;;;;;;5031457;28;20017;-64
2021/05/18 14:08:42;;;;;;;22.50;11.75;;;;;;;;;;5031495;28;20099;-64
2021/05/18 14:11:11;;;;;;;18.17;11.50;;;;;;;;;;5031344;28;20421;-65
2021/05/18 14:13:37;;;;;;;22.02;11.30;;;;;;;;;;5031057;28;20032;-64
2021/05/18 14:16:04;;;;;;;20.50;12.38;;;;;;;;;;5030695;28;20113;-64
2021/05/18 14:18:29;;;;;;;17.52;11.57;;;;;;;;;;5030459;28;20120;-65
2021/05/18 14:20:55;;;;;;;18.15;11.70;;;;;;;;;;5030767;28;20437;-64
2021/05/18 14:23:23;;;;;;;16.27;10.45;;;;;;;;;;5030891;28;20083;-64
2021/05/18 14:25:49;;;;;;;19.70;11.32;;;;;;;;;;5030476;28;20017;-64
2021/05/18 14:28:14;;;;;;;19.00;11.38;;;;;;;;;;5030772;28;20044;-65
2021/05/18 14:30:39;;;;;;;14.98;10.38;;;;;;;;;;5030874;28;20025;-64
2021/05/18 14:33:04;;;;;;;18.67;11.35;;;;;;;;;;5030874;28;20057;-64
2021/05/18 14:35:29;;;;;;;19.23;9.70;;;;;;;;;;5030848;28;20445;-65
2021/05/18 14:38:07;;;;;;;16.00;10.05;;;;;;;;;;5030357;28;20009;-64
2021/05/18 14:43:52;;;;;;;12.55;8.73;;;;;;;;;;5027064;28;20139;-64
2021/05/18 14:56:42;;;;;;;15.15;8.35;;;;;;;;;;5030258;28;20025;-64
2021/05/18 14:59:07;;;;;;;13.18;7.00;;;;;;;;;;5030456;28;20059;-65
2021/05/18 15:01:32;;;;;;;14.37;8.77;;;;;;;;;;5029720;28;20413;-64
2021/05/18 15:03:58;;;;;;;13.63;8.00;;;;;;;;;;5025768;28;20736;-64
2021/05/18 15:06:23;;;;;;;13.25;8.48;;;;;;;;;;5030239;28;20018;-64
2021/05/18 15:08:48;;;;;;;14.60;7.40;;;;;;;;;;5030530;28;20108;-65
2021/05/18 15:11:13;;;;;;;12.52;7.47;;;;;;;;;;5030186;28;20434;-64
2021/05/18 15:13:38;;;;;;;10.50;7.60;;;;;;;;;;5029361;28;20531;-64
2021/05/18 15:16:04;;;;;;;12.70;7.43;;;;;;;;;;5029825;28;20347;-65
2021/05/18 15:18:31;;;;;;;12.07;7.07;;;;;;;;;;5029413;28;20056;-64
2021/05/18 15:20:56;;;;;;;17.02;7.78;;;;;;;;;;5025644;28;20014;-64
2021/05/18 15:23:21;;;;;;;13.77;7.32;;;;;;;;;;5005863;28;20433;-64
2021/05/18 15:25:47;;;;;;;13.75;7.00;;;;;;;;;;5024063;28;20112;-64
2021/05/18 15:28:13;;;;;;;16.70;6.90;;;;;;;;;;5029868;28;20025;-65
2021/05/18 15:30:38;;;;;;;8.52;5.25;;;;;;;;;;5029555;28;20024;-64
2021/05/18 15:33:03;;;;;;;11.07;7.00;;;;;;;;;;5029915;28;20021;-63
2021/05/18 15:35:28;;;;;;;16.60;7.25;;;;;;;;;;5029716;28;20756;-65
2021/05/18 15:37:53;;;;;;;13.10;7.70;;;;;;;;;;5029395;28;20148;-64
2021/05/18 15:40:19;;;;;;;12.17;7.20;;;;;;;;;;5028742;28;20602;-64
2021/05/18 15:42:44;;;;;;;13.43;7.28;;;;;;;;;;5028335;28;20334;-64
2021/05/18 15:45:09;;;;;;;12.53;7.33;;;;;;;;;;5030422;28;20093;-65
2021/05/18 15:47:36;;;;;;;8.52;6.03;;;;;;;;;;5028998;28;20276;-64
2021/05/18 15:50:01;;;;;;;12.73;6.88;;;;;;;;;;5028269;28;20029;-65
2021/05/18 15:52:26;;;;;;;9.00;5.88;;;;;;;;;;5029237;28;20029;-64
2021/05/18 15:54:52;;;;;;;7.93;6.30;;;;;;;;;;5028890;28;20025;-64
2021/05/18 15:57:17;;;;;;;10.63;6.03;;;;;;;;;;5011034;28;20362;-63
2021/05/18 15:59:47;;;;;;;7.70;5.00;;;;;;;;;;5029935;28;20105;-65
2021/05/18 16:02:12;;;;;;;8.27;5.15;;;;;;;;;;5022247;28;20056;-65
2021/05/18 16:04:38;;;;;;;11.40;5.70;;;;;;;;;;5029400;28;20037;-64
2021/05/18 16:07:07;;;;;;;10.63;6.38;;;;;;;;;;5025525;28;20264;-63
2021/05/18 16:09:32;;;;;;;12.50;6.53;;;;;;;;;;5025394;28;20059;-64
2021/05/18 16:11:57;;;;;;;10.68;5.65;;;;;;;;;;5029450;28;20034;-64
2021/05/18 16:14:23;;;;;;;13.00;6.85;;;;;;;;;;5029416;28;20104;-63
2021/05/18 16:16:49;;;;;;;10.90;7.30;;;;;;;;;;5029221;28;20055;-65
2021/05/18 16:19:14;;;;;;;13.32;6.53;;;;;;;;;;5028689;28;20021;-64
2021/05/18 16:21:39;;;;;;;12.15;7.20;;;;;;;;;;5029478;28;20108;-64
2021/05/18 16:24:04;;;;;;;12.13;6.27;;;;;;;;;;5030192;28;20076;-65
2021/05/18 16:26:32;;;;;;;9.48;6.43;;;;;;;;;;5033336;28;20272;-64
2021/05/18 16:28:59;;;;;;;10.18;6.90;;;;;;;;;;5032390;28;20016;-65
2021/05/18 16:31:25;;;;;;;6.32;4.43;;;;;;;;;;5029870;28;20482;-63
2021/05/18 16:33:50;;;;;;;8.60;4.07;;;;;;;;;;5015374;28;20108;-64
2021/05/18 16:36:16;;;;;;;6.07;2.25;;;;;;;;;;5028000;28;20018;-63
2021/05/18 16:38:44;;;;;;;4.18;1.92;;;;;;;;;;5025802;28;20052;-65
2021/05/18 16:41:10;;;;;;;6.35;2.35;;;;;;;;;;5032675;28;20026;-63
2021/05/18 16:43:35;;;;;;;3.92;2.20;;;;;;;;;;5031951;28;20036;-65
2021/05/18 16:46:01;;;;;;;4.65;3.20;;;;;;;;;;5032589;28;20370;-65
2021/05/18 16:48:27;;;;;;;3.05;2.10;;;;;;;;;;5032224;28;20021;-63
2021/05/18 16:50:56;;;;;;;6.25;2.10;;;;;;;;;;5032660;28;20489;-64
2021/05/18 16:53:21;;;;;;;2.83;2.45;;;;;;;;;;5027522;28;20033;-65
2021/05/18 16:55:47;;;;;;;4.15;1.80;;;;;;;;;;5019764;28;20025;-64
2021/05/18 16:58:12;;;;;;;2.15;1.52;;;;;;;;;;5029037;28;20032;-64
2021/05/18 17:00:37;;;;;;;3.65;1.50;;;;;;;;;;5025652;28;20071;-65
2021/05/18 17:03:02;;;;;;;3.10;2.00;;;;;;;;;;5028335;28;20060;-63
2021/05/18 17:05:28;;;;;;;2.17;1.65;;;;;;;;;;5032032;28;20034;-62
2021/05/18 17:07:54;;;;;;;3.45;2.05;;;;;;;;;;5032649;28;20421;-65
2021/05/18 17:10:22;;;;;;;2.50;1.45;;;;;;;;;;5032704;28;20048;-63
2021/05/18 17:12:47;;;;;;;2.47;1.65;;;;;;;;;;5032685;28;20047;-65
2021/05/18 17:15:13;;;;;;;5.97;1.92;;;;;;;;;;5032467;28;20390;-64
2021/05/18 17:17:38;;;;;;;4.05;1.80;;;;;;;;;;5032170;28;20059;-65
2021/05/18 17:20:04;;;;;;;5.13;1.60;;;;;;;;;;5032459;28;20461;-64
2021/05/18 17:22:29;;;;;;;2.17;1.70;;;;;;;;;;5032342;28;20021;-65
2021/05/18 17:24:54;;;;;;;3.17;1.83;;;;;;;;;;5031449;28;20021;-64
2021/05/18 17:27:20;;;;;;;3.50;2.10;;;;;;;;;;5026721;28;20256;-65
2021/05/18 17:29:45;;;;;;;3.33;1.80;;;;;;;;;;5027899;28;20729;-65
2021/05/18 17:32:11;;;;;;;5.05;1.90;;;;;;;;;;5023540;28;20034;-65
2021/05/18 17:34:37;;;;;;;3.20;2.13;;;;;;;;;;5024856;28;20072;-63
2021/05/18 17:37:02;;;;;;;2.53;1.58;;;;;;;;;;5028311;28;20048;-65
2021/05/18 17:39:28;;;;;;;2.05;1.60;;;;;;;;;;5031707;28;20029;-65
2021/05/18 17:41:53;;;;;;;3.30;1.50;;;;;;;;;;5031436;28;20557;-64
2021/05/18 17:44:18;;;;;;;3.63;1.30;;;;;;;;;;5031380;28;20021;-64
2021/05/18 17:46:43;;;;;;;2.53;1.75;;;;;;;;;;5030724;28;20367;-65
2021/05/18 17:49:10;;;;;;;3.13;2.20;;;;;;;;;;5031682;28;20401;-65
2021/05/18 17:51:36;;;;;;;5.05;2.13;;;;;;;;;;5012704;28;20044;-65
2021/05/18 17:54:02;;;;;;;7.95;2.53;;;;;;;;;;5021746;28;20037;-64
2021/05/18 17:56:27;;;;;;;3.28;2.25;;;;;;;;;;5027764;28;20103;-63
2021/05/18 17:58:52;;;;;;;5.13;2.63;;;;;;;;;;5031433;28;20474;-63
2021/05/18 18:01:18;;;;;;;5.75;2.80;;;;;;;;;;5031836;28;20257;-63
2021/05/18 18:03:43;;;;;;;3.58;2.45;;;;;;;;;;5030671;28;20109;-62
2021/05/18 18:06:08;;;;;;;3.65;2.92;;;;;;;;;;5070346;22;20722;-62
2021/05/18 18:08:39;;;;;;;7.05;3.10;;;;;;;;;;5051873;28;20063;-62
2021/05/18 18:11:04;;;;;;;5.05;3.22;;;;;;;;;;5051416;28;20056;-63
2021/05/18 18:13:29;;;;;;;3.90;2.85;;;;;;;;;;5051345;28;20056;-65
2021/05/18 18:15:54;;;;;;;5.57;3.40;;;;;;;;;;5057725;28;20608;-63
2021/05/18 18:18:19;;;;;;;3.92;2.83;;;;;;;;;;5058647;28;20259;-64
2021/05/18 18:20:45;;;;;;;4.18;2.70;;;;;;;;;;5050671;28;20033;-62
2021/05/18 18:23:10;;;;;;;6.43;3.33;;;;;;;;;;5050922;28;20041;-66
2021/05/18 18:25:35;;;;;;;4.43;3.28;;;;;;;;;;5051367;28;20028;-64
2021/05/18 18:28:00;;;;;;;6.25;4.70;;;;;;;;;;5050190;28;20082;-65
2021/05/18 18:30:26;;;;;;;8.13;5.53;;;;;;;;;;5051154;28;20019;-66
2021/05/18 18:32:51;;;;;;;7.77;5.07;;;;;;;;;;5050759;28;20052;-65
2021/05/18 18:35:16;;;;;;;12.25;6.47;;;;;;;;;;5058258;28;20275;-64
2021/05/18 18:37:43;;;;;;;8.98;5.85;;;;;;;;;;5061730;28;20025;-64
2021/05/18 18:40:09;;;;;;;9.60;6.45;;;;;;;;;;5050035;28;20079;-64
2021/05/18 18:42:34;;;;;;;8.43;6.45;;;;;;;;;;5050934;28;20443;-65
2021/05/18 18:45:00;;;;;;;14.98;6.18;;;;;;;;;;5049780;28;20079;-65
2021/05/18 18:47:25;;;;;;;12.63;7.28;;;;;;;;;;5057728;28;20052;-65
2021/05/18 18:49:52;;;;;;;10.32;6.82;;;;;;;;;;5050172;28;20059;-65
2021/05/18 18:55:03;;;;;;;17.77;6.55;;;;;;;;;;5052978;28;20028;-65
2021/05/18 18:57:28;;;;;;;7.32;5.78;;;;;;;;;;5050094;28;20075;-66
2021/05/18 18:59:53;;;;;;;7.78;6.53;;;;;;;;;;5063379;28;20056;-65
2021/05/18 19:02:19;;;;;;;11.98;6.65;;;;;;;;;;5050401;28;20025;-66
2021/05/18 19:04:44;;;;;;;9.05;5.55;;;;;;;;;;5045911;28;20112;-65
2021/05/18 19:07:34;;;;;;;11.75;7.15;;;;;;;;;;5045837;28;20039;-65
2021/05/18 19:12:42;;;;;;;12.13;5.57;;;;;;;;;;5050232;28;20062;-65
2021/05/18 19:15:09;;;;;;;8.95;5.82;;;;;;;;;;5058215;28;20020;-64
2021/05/18 19:17:35;;;;;;;9.02;6.40;;;;;;;;;;5063667;28;20099;-65